Terminal Aerodrome Forecast
Issued by NWS

Home | Current Version | Previous Version | Text Only | Print | Product List | Glossary On
Versions: 1 2 3 4 5 6 7 8 9 10 11 12 13 14 15 16 17
000
FTUS43 KGRB 311700
TAFATW
TAF
KATW 311730Z 3118/0118 33008G13KT P6SM BKN025
     FM312200 02008KT P6SM BKN026
     FM010300 03012G20KT P6SM BKN030
     FM010900 03016G25KT 3SM -SN BKN030
     FM011400 03015G25KT 1 1/2SM -SN BKN015=

USA.gov is the U.S. government's official web portal to all federal, state and local government web resources and services.